sensor_id;sensor_type;location;lat;lon;timestamp;temperature;humidity
17639;DHT22;8938;53.546;9.954;2023-07-28T00:02:18;20.80;99.90
17639;DHT22;8938;53.546;9.954;2023-07-28T00:04:43;20.80;99.90
17639;DHT22;8938;53.546;9.954;2023-07-28T00:07:09;20.90;99.90
17639;DHT22;8938;53.546;9.954;2023-07-28T00:09:34;20.80;99.90
17639;DHT22;8938;53.546;9.954;2023-07-28T00:12:01;20.80;99.90
17639;DHT22;8938;53.546;9.954;2023-07-28T00:14:27;20.80;99.90
17639;DHT22;8938;53.546;9.954;2023-07-28T00:16:53;20.70;99.90
17639;DHT22;8938;53.546;9.954;2023-07-28T00:19:20;20.60;99.90
17639;DHT22;8938;53.546;9.954;2023-07-28T00:21:48;20.60;99.90
17639;DHT22;8938;53.546;9.954;2023-07-28T00:24:14;20.50;99.90
17639;DHT22;8938;53.546;9.954;2023-07-28T00:26:39;20.50;99.90
17639;DHT22;8938;53.546;9.954;2023-07-28T00:29:05;20.50;99.90
17639;DHT22;8938;53.546;9.954;2023-07-28T00:31:33;20.40;99.90
17639;DHT22;8938;53.546;9.954;2023-07-28T00:33:59;20.30;99.90
17639;DHT22;8938;53.546;9.954;2023-07-28T00:36:24;20.30;99.90
17639;DHT22;8938;53.546;9.954;2023-07-28T00:38:50;20.30;99.90
17639;DHT22;8938;53.546;9.954;2023-07-28T00:41:16;20.30;99.90
17639;DHT22;8938;53.546;9.954;2023-07-28T00:43:41;20.40;99.90
17639;DHT22;8938;53.546;9.954;2023-07-28T00:46:08;20.40;99.90
17639;DHT22;8938;53.546;9.954;2023-07-28T00:48:33;20.40;99.90
17639;DHT22;8938;53.546;9.954;2023-07-28T00:50:59;20.50;99.90
17639;DHT22;8938;53.546;9.954;2023-07-28T00:53:25;20.40;99.90
17639;DHT22;8938;53.546;9.954;2023-07-28T00:55:51;20.40;99.90
17639;DHT22;8938;53.546;9.954;2023-07-28T00:58:17;20.30;99.90
17639;DHT22;8938;53.546;9.954;2023-07-28T01:00:43;20.30;99.90
17639;DHT22;8938;53.546;9.954;2023-07-28T01:03:09;20.30;99.90
17639;DHT22;8938;53.546;9.954;2023-07-28T01:11:16;20.40;99.90
17639;DHT22;8938;53.546;9.954;2023-07-28T01:13:41;20.40;99.90
17639;DHT22;8938;53.546;9.954;2023-07-28T01:16:07;20.50;99.90
17639;DHT22;8938;53.546;9.954;2023-07-28T01:18:33;20.30;99.90
17639;DHT22;8938;53.546;9.954;2023-07-28T01:21:01;20.30;99.90
17639;DHT22;8938;53.546;9.954;2023-07-28T01:26:03;20.30;99.90
17639;DHT22;8938;53.546;9.954;2023-07-28T01:28:31;20.30;99.90
17639;DHT22;8938;53.546;9.954;2023-07-28T01:30:58;20.30;99.90
17639;DHT22;8938;53.546;9.954;2023-07-28T01:33:23;20.20;99.90
17639;DHT22;8938;53.546;9.954;2023-07-28T01:35:49;20.30;99.90
17639;DHT22;8938;53.546;9.954;2023-07-28T01:38:14;20.30;99.90
17639;DHT22;8938;53.546;9.954;2023-07-28T01:40:41;20.30;99.90
17639;DHT22;8938;53.546;9.954;2023-07-28T01:43:06;20.30;99.90
17639;DHT22;8938;53.546;9.954;2023-07-28T01:45:32;20.30;99.90
17639;DHT22;8938;53.546;9.954;2023-07-28T01:47:58;20.40;99.90
17639;DHT22;8938;53.546;9.954;2023-07-28T01:50:23;20.40;99.90
17639;DHT22;8938;53.546;9.954;2023-07-28T01:52:49;20.40;99.90
17639;DHT22;8938;53.546;9.954;2023-07-28T01:55:15;20.40;99.90
17639;DHT22;8938;53.546;9.954;2023-07-28T01:57:50;20.40;99.90
17639;DHT22;8938;53.546;9.954;2023-07-28T02:00:17;20.40;99.90
17639;DHT22;8938;53.546;9.954;2023-07-28T02:02:42;20.40;99.90
17639;DHT22;8938;53.546;9.954;2023-07-28T02:05:08;20.40;99.90
17639;DHT22;8938;53.546;9.954;2023-07-28T02:07:33;20.40;99.90
17639;DHT22;8938;53.546;9.954;2023-07-28T02:09:59;20.60;99.90
17639;DHT22;8938;53.546;9.954;2023-07-28T02:12:24;20.50;99.90
17639;DHT22;8938;53.546;9.954;2023-07-28T02:14:51;20.60;99.90
17639;DHT22;8938;53.546;9.954;2023-07-28T02:17:16;20.70;99.90
17639;DHT22;8938;53.546;9.954;2023-07-28T02:19:42;20.70;99.90
17639;DHT22;8938;53.546;9.954;2023-07-28T02:22:07;20.80;99.90
17639;DHT22;8938;53.546;9.954;2023-07-28T02:24:33;20.70;99.90
17639;DHT22;8938;53.546;9.954;2023-07-28T02:26:58;20.70;99.90
17639;DHT22;8938;53.546;9.954;2023-07-28T02:29:24;20.50;99.90
17639;DHT22;8938;53.546;9.954;2023-07-28T02:31:49;20.50;99.90
17639;DHT22;8938;53.546;9.954;2023-07-28T02:34:15;20.60;99.90
17639;DHT22;8938;53.546;9.954;2023-07-28T02:36:40;20.60;99.90
17639;DHT22;8938;53.546;9.954;2023-07-28T02:39:06;20.60;99.90
17639;DHT22;8938;53.546;9.954;2023-07-28T02:41:31;20.60;99.90
17639;DHT22;8938;53.546;9.954;2023-07-28T02:43:57;20.60;99.90
17639;DHT22;8938;53.546;9.954;2023-07-28T02:46:22;20.60;99.90
17639;DHT22;8938;53.546;9.954;2023-07-28T02:48:48;20.70;99.90
17639;DHT22;8938;53.546;9.954;2023-07-28T02:51:13;20.60;99.90
17639;DHT22;8938;53.546;9.954;2023-07-28T02:53:39;20.70;99.90
17639;DHT22;8938;53.546;9.954;2023-07-28T02:56:04;20.60;99.90
17639;DHT22;8938;53.546;9.954;2023-07-28T02:58:30;20.60;99.90
17639;DHT22;8938;53.546;9.954;2023-07-28T03:00:55;20.60;99.90
17639;DHT22;8938;53.546;9.954;2023-07-28T03:03:21;20.60;99.90
17639;DHT22;8938;53.546;9.954;2023-07-28T03:05:46;20.50;99.90
17639;DHT22;8938;53.546;9.954;2023-07-28T03:08:12;20.50;99.90
17639;DHT22;8938;53.546;9.954;2023-07-28T03:10:37;20.50;99.90
17639;DHT22;8938;53.546;9.954;2023-07-28T03:13:03;20.50;99.90
17639;DHT22;8938;53.546;9.954;2023-07-28T03:15:28;20.60;99.90
17639;DHT22;8938;53.546;9.954;2023-07-28T03:17:54;20.60;99.90
17639;DHT22;8938;53.546;9.954;2023-07-28T03:20:20;20.50;99.90
17639;DHT22;8938;53.546;9.954;2023-07-28T03:22:45;20.60;99.90
17639;DHT22;8938;53.546;9.954;2023-07-28T03:25:12;20.50;99.90
17639;DHT22;8938;53.546;9.954;2023-07-28T03:27:37;20.50;99.90
17639;DHT22;8938;53.546;9.954;2023-07-28T03:30:03;20.40;99.90
17639;DHT22;8938;53.546;9.954;2023-07-28T03:32:32;20.40;99.90
17639;DHT22;8938;53.546;9.954;2023-07-28T03:34:57;20.40;99.90
17639;DHT22;8938;53.546;9.954;2023-07-28T03:37:23;20.40;99.90
17639;DHT22;8938;53.546;9.954;2023-07-28T03:39:48;20.40;99.90
17639;DHT22;8938;53.546;9.954;2023-07-28T03:42:14;20.50;99.90
17639;DHT22;8938;53.546;9.954;2023-07-28T03:44:40;20.30;99.90
17639;DHT22;8938;53.546;9.954;2023-07-28T03:47:07;20.30;99.90
17639;DHT22;8938;53.546;9.954;2023-07-28T03:49:32;20.30;99.90
17639;DHT22;8938;53.546;9.954;2023-07-28T03:51:58;20.30;99.90
17639;DHT22;8938;53.546;9.954;2023-07-28T03:54:23;20.30;99.90
17639;DHT22;8938;53.546;9.954;2023-07-28T03:56:49;20.30;99.90
17639;DHT22;8938;53.546;9.954;2023-07-28T03:59:15;20.40;99.90
17639;DHT22;8938;53.546;9.954;2023-07-28T04:01:40;20.40;99.90
17639;DHT22;8938;53.546;9.954;2023-07-28T04:04:06;20.30;99.90
17639;DHT22;8938;53.546;9.954;2023-07-28T04:06:45;20.40;99.90
17639;DHT22;8938;53.546;9.954;2023-07-28T04:09:13;20.50;99.90
17639;DHT22;8938;53.546;9.954;2023-07-28T04:11:38;20.50;99.90
17639;DHT22;8938;53.546;9.954;2023-07-28T04:14:04;20.50;99.90
17639;DHT22;8938;53.546;9.954;2023-07-28T04:16:30;20.50;99.90
17639;DHT22;8938;53.546;9.954;2023-07-28T04:18:56;20.50;99.90
17639;DHT22;8938;53.546;9.954;2023-07-28T04:21:22;20.50;99.90
17639;DHT22;8938;53.546;9.954;2023-07-28T04:23:47;20.60;99.90
17639;DHT22;8938;53.546;9.954;2023-07-28T04:26:13;20.50;99.90
17639;DHT22;8938;53.546;9.954;2023-07-28T04:28:38;20.60;99.90
17639;DHT22;8938;53.546;9.954;2023-07-28T04:31:04;20.60;99.90
17639;DHT22;8938;53.546;9.954;2023-07-28T04:33:30;20.60;99.90
17639;DHT22;8938;53.546;9.954;2023-07-28T04:35:55;20.50;99.90
17639;DHT22;8938;53.546;9.954;2023-07-28T04:38:21;20.40;99.90
17639;DHT22;8938;53.546;9.954;2023-07-28T04:40:46;20.40;99.90
17639;DHT22;8938;53.546;9.954;2023-07-28T04:43:12;20.50;99.90
17639;DHT22;8938;53.546;9.954;2023-07-28T04:45:37;20.50;99.90
17639;DHT22;8938;53.546;9.954;2023-07-28T04:48:03;20.60;99.90
17639;DHT22;8938;53.546;9.954;2023-07-28T04:50:29;20.60;99.90
17639;DHT22;8938;53.546;9.954;2023-07-28T04:52:55;20.60;99.90
17639;DHT22;8938;53.546;9.954;2023-07-28T04:55:20;20.60;99.90
17639;DHT22;8938;53.546;9.954;2023-07-28T04:57:46;20.60;99.90
17639;DHT22;8938;53.546;9.954;2023-07-28T05:00:12;20.60;99.90
17639;DHT22;8938;53.546;9.954;2023-07-28T05:02:38;20.50;99.90
17639;DHT22;8938;53.546;9.954;2023-07-28T05:05:04;20.40;99.90
17639;DHT22;8938;53.546;9.954;2023-07-28T05:07:29;20.40;99.90
17639;DHT22;8938;53.546;9.954;2023-07-28T05:09:55;20.50;99.90
17639;DHT22;8938;53.546;9.954;2023-07-28T05:12:20;20.50;99.90
17639;DHT22;8938;53.546;9.954;2023-07-28T05:14:46;20.60;99.90
17639;DHT22;8938;53.546;9.954;2023-07-28T05:17:12;20.60;99.90
17639;DHT22;8938;53.546;9.954;2023-07-28T05:19:37;20.80;99.90
17639;DHT22;8938;53.546;9.954;2023-07-28T05:22:03;20.70;99.90
17639;DHT22;8938;53.546;9.954;2023-07-28T05:24:28;20.80;99.90
17639;DHT22;8938;53.546;9.954;2023-07-28T05:26:54;20.70;99.90
17639;DHT22;8938;53.546;9.954;2023-07-28T05:29:19;20.80;99.90
17639;DHT22;8938;53.546;9.954;2023-07-28T05:31:45;20.90;99.90
17639;DHT22;8938;53.546;9.954;2023-07-28T05:34:11;20.80;99.90
17639;DHT22;8938;53.546;9.954;2023-07-28T05:36:38;20.80;99.90
17639;DHT22;8938;53.546;9.954;2023-07-28T05:39:04;20.80;99.90
17639;DHT22;8938;53.546;9.954;2023-07-28T05:41:30;20.90;99.90
17639;DHT22;8938;53.546;9.954;2023-07-28T05:43:55;20.80;99.90
17639;DHT22;8938;53.546;9.954;2023-07-28T05:46:21;20.80;99.90
17639;DHT22;8938;53.546;9.954;2023-07-28T05:48:46;20.90;99.90
17639;DHT22;8938;53.546;9.954;2023-07-28T05:51:12;21.00;99.90
17639;DHT22;8938;53.546;9.954;2023-07-28T05:53:37;21.10;99.90
17639;DHT22;8938;53.546;9.954;2023-07-28T05:56:03;21.20;99.90
17639;DHT22;8938;53.546;9.954;2023-07-28T05:58:29;21.30;99.90
17639;DHT22;8938;53.546;9.954;2023-07-28T06:00:54;21.40;99.90
17639;DHT22;8938;53.546;9.954;2023-07-28T06:03:20;21.60;99.90
17639;DHT22;8938;53.546;9.954;2023-07-28T06:05:45;21.80;99.90
17639;DHT22;8938;53.546;9.954;2023-07-28T06:08:11;21.90;99.90
17639;DHT22;8938;53.546;9.954;2023-07-28T06:10:37;22.10;99.90
17639;DHT22;8938;53.546;9.954;2023-07-28T06:13:03;22.30;99.90
17639;DHT22;8938;53.546;9.954;2023-07-28T06:15:29;22.30;99.90
17639;DHT22;8938;53.546;9.954;2023-07-28T06:17:54;22.30;99.90
17639;DHT22;8938;53.546;9.954;2023-07-28T06:20:20;22.40;99.90
17639;DHT22;8938;53.546;9.954;2023-07-28T06:22:45;22.50;99.90
17639;DHT22;8938;53.546;9.954;2023-07-28T06:25:11;22.50;99.90
17639;DHT22;8938;53.546;9.954;2023-07-28T06:27:36;22.60;99.90
17639;DHT22;8938;53.546;9.954;2023-07-28T06:30:04;22.50;99.90
17639;DHT22;8938;53.546;9.954;2023-07-28T06:32:30;22.50;99.90
17639;DHT22;8938;53.546;9.954;2023-07-28T06:34:56;22.50;99.90
17639;DHT22;8938;53.546;9.954;2023-07-28T06:37:23;22.40;99.90
17639;DHT22;8938;53.546;9.954;2023-07-28T06:39:48;22.30;99.90
17639;DHT22;8938;53.546;9.954;2023-07-28T06:42:14;22.30;99.90
17639;DHT22;8938;53.546;9.954;2023-07-28T06:44:42;22.30;99.90
17639;DHT22;8938;53.546;9.954;2023-07-28T06:47:07;22.40;99.90
17639;DHT22;8938;53.546;9.954;2023-07-28T06:49:33;22.20;99.90
17639;DHT22;8938;53.546;9.954;2023-07-28T06:51:58;22.30;99.90
17639;DHT22;8938;53.546;9.954;2023-07-28T06:54:24;22.40;99.90
17639;DHT22;8938;53.546;9.954;2023-07-28T06:56:50;22.50;99.90
17639;DHT22;8938;53.546;9.954;2023-07-28T06:59:15;22.50;99.90
17639;DHT22;8938;53.546;9.954;2023-07-28T07:01:41;22.60;99.90
17639;DHT22;8938;53.546;9.954;2023-07-28T07:04:06;22.70;99.90
17639;DHT22;8938;53.546;9.954;2023-07-28T07:06:32;22.60;99.90
17639;DHT22;8938;53.546;9.954;2023-07-28T07:08:57;22.70;99.90
17639;DHT22;8938;53.546;9.954;2023-07-28T07:11:23;22.90;99.90
17639;DHT22;8938;53.546;9.954;2023-07-28T07:13:48;22.90;99.90
17639;DHT22;8938;53.546;9.954;2023-07-28T07:16:15;23.00;99.90
17639;DHT22;8938;53.546;9.954;2023-07-28T07:18:42;23.00;99.90
17639;DHT22;8938;53.546;9.954;2023-07-28T07:21:08;23.10;99.90
17639;DHT22;8938;53.546;9.954;2023-07-28T07:23:34;23.00;99.90
17639;DHT22;8938;53.546;9.954;2023-07-28T07:25:59;23.20;99.90
17639;DHT22;8938;53.546;9.954;2023-07-28T07:28:25;23.00;99.90
17639;DHT22;8938;53.546;9.954;2023-07-28T07:30:51;23.00;99.90
17639;DHT22;8938;53.546;9.954;2023-07-28T07:33:16;22.90;99.90
17639;DHT22;8938;53.546;9.954;2023-07-28T07:35:42;22.80;99.90
17639;DHT22;8938;53.546;9.954;2023-07-28T07:38:07;22.80;99.90
17639;DHT22;8938;53.546;9.954;2023-07-28T07:40:35;22.70;99.90
17639;DHT22;8938;53.546;9.954;2023-07-28T07:43:01;22.60;99.90
17639;DHT22;8938;53.546;9.954;2023-07-28T07:45:29;22.60;99.90
17639;DHT22;8938;53.546;9.954;2023-07-28T07:47:54;22.80;99.90
17639;DHT22;8938;53.546;9.954;2023-07-28T07:50:20;22.90;99.90
17639;DHT22;8938;53.546;9.954;2023-07-28T07:52:47;22.90;99.90
17639;DHT22;8938;53.546;9.954;2023-07-28T07:55:13;22.90;99.90
17639;DHT22;8938;53.546;9.954;2023-07-28T07:57:39;22.90;99.90
17639;DHT22;8938;53.546;9.954;2023-07-28T08:00:05;23.10;99.90
17639;DHT22;8938;53.546;9.954;2023-07-28T08:02:31;22.90;99.90
17639;DHT22;8938;53.546;9.954;2023-07-28T08:04:57;23.00;99.90
17639;DHT22;8938;53.546;9.954;2023-07-28T08:07:22;23.00;99.90
17639;DHT22;8938;53.546;9.954;2023-07-28T08:09:49;23.20;99.90
17639;DHT22;8938;53.546;9.954;2023-07-28T08:12:14;23.20;99.90
17639;DHT22;8938;53.546;9.954;2023-07-28T08:14:40;23.30;99.90
17639;DHT22;8938;53.546;9.954;2023-07-28T08:17:06;23.30;99.90
17639;DHT22;8938;53.546;9.954;2023-07-28T08:19:31;23.50;99.90
17639;DHT22;8938;53.546;9.954;2023-07-28T08:21:57;23.80;99.90
17639;DHT22;8938;53.546;9.954;2023-07-28T08:24:22;23.90;99.90
17639;DHT22;8938;53.546;9.954;2023-07-28T08:26:48;24.10;99.90
17639;DHT22;8938;53.546;9.954;2023-07-28T08:29:15;24.30;99.90
17639;DHT22;8938;53.546;9.954;2023-07-28T08:31:40;24.40;99.90
17639;DHT22;8938;53.546;9.954;2023-07-28T08:34:07;24.50;99.90
17639;DHT22;8938;53.546;9.954;2023-07-28T08:36:33;24.60;99.90
17639;DHT22;8938;53.546;9.954;2023-07-28T08:38:59;24.50;99.90
17639;DHT22;8938;53.546;9.954;2023-07-28T08:41:24;24.50;99.90
17639;DHT22;8938;53.546;9.954;2023-07-28T08:43:50;24.40;99.90
17639;DHT22;8938;53.546;9.954;2023-07-28T08:46:17;24.20;99.90
17639;DHT22;8938;53.546;9.954;2023-07-28T08:48:46;24.10;99.90
17639;DHT22;8938;53.546;9.954;2023-07-28T08:51:13;24.10;99.90
17639;DHT22;8938;53.546;9.954;2023-07-28T08:53:39;24.20;99.90
17639;DHT22;8938;53.546;9.954;2023-07-28T08:56:05;24.20;99.90
17639;DHT22;8938;53.546;9.954;2023-07-28T08:58:31;24.20;99.90
17639;DHT22;8938;53.546;9.954;2023-07-28T09:00:56;24.30;99.90
17639;DHT22;8938;53.546;9.954;2023-07-28T09:03:26;24.40;99.90
17639;DHT22;8938;53.546;9.954;2023-07-28T09:06:00;24.40;99.90
17639;DHT22;8938;53.546;9.954;2023-07-28T09:08:26;24.60;99.90
17639;DHT22;8938;53.546;9.954;2023-07-28T09:10:52;24.80;99.90
17639;DHT22;8938;53.546;9.954;2023-07-28T09:13:19;24.80;99.90
17639;DHT22;8938;53.546;9.954;2023-07-28T09:15:46;25.00;99.90
17639;DHT22;8938;53.546;9.954;2023-07-28T09:18:14;24.90;99.90
17639;DHT22;8938;53.546;9.954;2023-07-28T09:20:41;24.90;99.90
17639;DHT22;8938;53.546;9.954;2023-07-28T09:23:08;24.90;99.90
17639;DHT22;8938;53.546;9.954;2023-07-28T09:25:35;24.70;99.90
17639;DHT22;8938;53.546;9.954;2023-07-28T09:28:01;24.70;99.90
17639;DHT22;8938;53.546;9.954;2023-07-28T09:30:46;24.80;99.90
17639;DHT22;8938;53.546;9.954;2023-07-28T09:33:12;24.70;99.90
17639;DHT22;8938;53.546;9.954;2023-07-28T09:35:48;24.60;99.90
17639;DHT22;8938;53.546;9.954;2023-07-28T09:38:14;24.20;99.90
17639;DHT22;8938;53.546;9.954;2023-07-28T09:40:40;23.90;99.90
17639;DHT22;8938;53.546;9.954;2023-07-28T09:43:07;23.60;99.90
17639;DHT22;8938;53.546;9.954;2023-07-28T09:45:33;23.50;99.90
17639;DHT22;8938;53.546;9.954;2023-07-28T09:48:01;23.40;99.90
17639;DHT22;8938;53.546;9.954;2023-07-28T09:50:31;23.50;99.90
17639;DHT22;8938;53.546;9.954;2023-07-28T09:53:01;23.50;99.90
17639;DHT22;8938;53.546;9.954;2023-07-28T09:55:28;23.40;99.90
17639;DHT22;8938;53.546;9.954;2023-07-28T09:57:55;23.40;99.90
17639;DHT22;8938;53.546;9.954;2023-07-28T10:00:22;23.30;99.90
17639;DHT22;8938;53.546;9.954;2023-07-28T10:02:48;23.40;99.90
17639;DHT22;8938;53.546;9.954;2023-07-28T10:05:14;23.30;99.90
17639;DHT22;8938;53.546;9.954;2023-07-28T10:07:45;23.20;99.90
17639;DHT22;8938;53.546;9.954;2023-07-28T10:10:12;23.10;99.90
17639;DHT22;8938;53.546;9.954;2023-07-28T10:12:42;23.20;99.90
17639;DHT22;8938;53.546;9.954;2023-07-28T10:15:15;23.10;99.90
17639;DHT22;8938;53.546;9.954;2023-07-28T10:17:44;23.20;99.90
17639;DHT22;8938;53.546;9.954;2023-07-28T10:20:46;23.40;99.90
17639;DHT22;8938;53.546;9.954;2023-07-28T10:23:17;23.50;99.90
17639;DHT22;8938;53.546;9.954;2023-07-28T10:25:44;23.70;99.90
17639;DHT22;8938;53.546;9.954;2023-07-28T10:28:36;23.80;99.90
17639;DHT22;8938;53.546;9.954;2023-07-28T10:31:08;23.90;99.90
17639;DHT22;8938;53.546;9.954;2023-07-28T10:33:40;23.90;99.90
17639;DHT22;8938;53.546;9.954;2023-07-28T10:39:12;24.00;99.90
17639;DHT22;8938;53.546;9.954;2023-07-28T10:41:38;24.00;99.90
17639;DHT22;8938;53.546;9.954;2023-07-28T10:44:05;24.20;99.90
17639;DHT22;8938;53.546;9.954;2023-07-28T10:46:35;24.40;99.90
17639;DHT22;8938;53.546;9.954;2023-07-28T10:49:04;24.60;99.90
17639;DHT22;8938;53.546;9.954;2023-07-28T10:51:30;24.70;99.90
17639;DHT22;8938;53.546;9.954;2023-07-28T10:53:59;24.90;99.90
17639;DHT22;8938;53.546;9.954;2023-07-28T10:56:26;25.00;99.90
17639;DHT22;8938;53.546;9.954;2023-07-28T10:58:59;25.10;99.90
17639;DHT22;8938;53.546;9.954;2023-07-28T11:01:33;25.30;99.90
17639;DHT22;8938;53.546;9.954;2023-07-28T11:04:17;25.40;99.90
17639;DHT22;8938;53.546;9.954;2023-07-28T11:06:47;25.40;99.90
17639;DHT22;8938;53.546;9.954;2023-07-28T11:09:14;25.50;99.90
17639;DHT22;8938;53.546;9.954;2023-07-28T11:11:40;25.50;99.90
17639;DHT22;8938;53.546;9.954;2023-07-28T11:14:07;25.60;99.90
17639;DHT22;8938;53.546;9.954;2023-07-28T11:16:41;25.60;99.90
17639;DHT22;8938;53.546;9.954;2023-07-28T11:19:12;25.70;99.90
17639;DHT22;8938;53.546;9.954;2023-07-28T11:21:40;25.70;99.90
17639;DHT22;8938;53.546;9.954;2023-07-28T11:24:10;25.70;99.90
17639;DHT22;8938;53.546;9.954;2023-07-28T11:26:37;25.90;99.90
17639;DHT22;8938;53.546;9.954;2023-07-28T11:29:03;26.10;99.90
17639;DHT22;8938;53.546;9.954;2023-07-28T11:31:29;26.50;99.90
17639;DHT22;8938;53.546;9.954;2023-07-28T11:33:55;26.70;99.90
17639;DHT22;8938;53.546;9.954;2023-07-28T11:36:25;26.70;99.90
17639;DHT22;8938;53.546;9.954;2023-07-28T11:38:51;26.70;99.90
17639;DHT22;8938;53.546;9.954;2023-07-28T11:41:18;26.80;99.90
17639;DHT22;8938;53.546;9.954;2023-07-28T11:43:44;26.60;99.90
17639;DHT22;8938;53.546;9.954;2023-07-28T11:46:35;26.60;99.90
17639;DHT22;8938;53.546;9.954;2023-07-28T11:49:15;26.70;99.90
17639;DHT22;8938;53.546;9.954;2023-07-28T11:51:50;26.80;99.90
17639;DHT22;8938;53.546;9.954;2023-07-28T11:54:17;26.70;99.90
17639;DHT22;8938;53.546;9.954;2023-07-28T11:56:46;26.70;99.90
17639;DHT22;8938;53.546;9.954;2023-07-28T11:59:12;26.30;99.90
17639;DHT22;8938;53.546;9.954;2023-07-28T12:01:59;26.30;99.90
17639;DHT22;8938;53.546;9.954;2023-07-28T12:04:27;26.20;99.90
17639;DHT22;8938;53.546;9.954;2023-07-28T12:12:18;26.30;99.90
17639;DHT22;8938;53.546;9.954;2023-07-28T12:14:43;26.30;99.90
17639;DHT22;8938;53.546;9.954;2023-07-28T12:17:19;26.30;99.90
17639;DHT22;8938;53.546;9.954;2023-07-28T12:20:05;26.20;99.90
17639;DHT22;8938;53.546;9.954;2023-07-28T12:22:44;26.20;99.90
17639;DHT22;8938;53.546;9.954;2023-07-28T12:25:11;26.40;99.90
17639;DHT22;8938;53.546;9.954;2023-07-28T12:27:37;26.40;99.90
17639;DHT22;8938;53.546;9.954;2023-07-28T12:30:03;26.30;99.90
17639;DHT22;8938;53.546;9.954;2023-07-28T12:32:29;26.30;99.90
17639;DHT22;8938;53.546;9.954;2023-07-28T12:34:55;26.10;99.90
17639;DHT22;8938;53.546;9.954;2023-07-28T12:37:20;26.20;99.90
17639;DHT22;8938;53.546;9.954;2023-07-28T12:39:47;26.20;99.90
17639;DHT22;8938;53.546;9.954;2023-07-28T12:42:13;26.20;99.90
17639;DHT22;8938;53.546;9.954;2023-07-28T12:44:41;26.30;99.90
17639;DHT22;8938;53.546;9.954;2023-07-28T12:47:06;26.40;99.90
17639;DHT22;8938;53.546;9.954;2023-07-28T12:49:32;26.50;99.90
17639;DHT22;8938;53.546;9.954;2023-07-28T12:52:01;26.50;99.90
17639;DHT22;8938;53.546;9.954;2023-07-28T12:54:27;26.40;99.90
17639;DHT22;8938;53.546;9.954;2023-07-28T12:56:55;26.20;99.90
17639;DHT22;8938;53.546;9.954;2023-07-28T12:59:21;26.10;99.90
17639;DHT22;8938;53.546;9.954;2023-07-28T13:01:47;26.10;99.90
17639;DHT22;8938;53.546;9.954;2023-07-28T13:04:13;26.20;99.90
17639;DHT22;8938;53.546;9.954;2023-07-28T13:06:38;26.20;99.90
17639;DHT22;8938;53.546;9.954;2023-07-28T13:09:06;25.90;99.90
17639;DHT22;8938;53.546;9.954;2023-07-28T13:11:31;25.80;99.90
17639;DHT22;8938;53.546;9.954;2023-07-28T13:13:57;25.60;99.90
17639;DHT22;8938;53.546;9.954;2023-07-28T13:16:22;25.70;99.90
17639;DHT22;8938;53.546;9.954;2023-07-28T13:18:48;25.70;99.90
17639;DHT22;8938;53.546;9.954;2023-07-28T13:21:13;25.70;99.90
17639;DHT22;8938;53.546;9.954;2023-07-28T13:23:40;25.80;99.90
17639;DHT22;8938;53.546;9.954;2023-07-28T13:26:05;25.90;99.90
17639;DHT22;8938;53.546;9.954;2023-07-28T13:28:32;26.00;99.90
17639;DHT22;8938;53.546;9.954;2023-07-28T13:30:58;26.20;99.90
17639;DHT22;8938;53.546;9.954;2023-07-28T13:33:23;26.50;99.90
17639;DHT22;8938;53.546;9.954;2023-07-28T13:35:49;26.70;99.90
17639;DHT22;8938;53.546;9.954;2023-07-28T13:38:14;26.70;99.90
17639;DHT22;8938;53.546;9.954;2023-07-28T13:40:40;26.90;99.90
17639;DHT22;8938;53.546;9.954;2023-07-28T13:43:06;27.00;99.90
17639;DHT22;8938;53.546;9.954;2023-07-28T13:45:31;27.00;99.90
17639;DHT22;8938;53.546;9.954;2023-07-28T13:47:57;26.90;99.90
17639;DHT22;8938;53.546;9.954;2023-07-28T13:50:22;26.90;99.90
17639;DHT22;8938;53.546;9.954;2023-07-28T13:52:49;26.80;99.90
17639;DHT22;8938;53.546;9.954;2023-07-28T13:55:14;26.90;99.90
17639;DHT22;8938;53.546;9.954;2023-07-28T13:57:40;26.90;99.90
17639;DHT22;8938;53.546;9.954;2023-07-28T14:00:06;26.80;99.90
17639;DHT22;8938;53.546;9.954;2023-07-28T14:02:38;26.80;99.90
17639;DHT22;8938;53.546;9.954;2023-07-28T14:05:04;26.80;99.90
17639;DHT22;8938;53.546;9.954;2023-07-28T14:07:31;26.80;99.90
17639;DHT22;8938;53.546;9.954;2023-07-28T14:09:57;26.80;99.90
17639;DHT22;8938;53.546;9.954;2023-07-28T14:12:22;26.90;99.90
17639;DHT22;8938;53.546;9.954;2023-07-28T14:14:48;26.90;99.90
17639;DHT22;8938;53.546;9.954;2023-07-28T14:17:15;27.00;99.90
17639;DHT22;8938;53.546;9.954;2023-07-28T14:19:41;27.00;99.90
17639;DHT22;8938;53.546;9.954;2023-07-28T14:22:07;27.10;99.90
17639;DHT22;8938;53.546;9.954;2023-07-28T14:24:32;27.20;99.90
17639;DHT22;8938;53.546;9.954;2023-07-28T14:26:58;27.20;99.90
17639;DHT22;8938;53.546;9.954;2023-07-28T14:29:23;27.20;99.90
17639;DHT22;8938;53.546;9.954;2023-07-28T14:31:49;27.30;99.90
17639;DHT22;8938;53.546;9.954;2023-07-28T14:34:15;27.20;99.90
17639;DHT22;8938;53.546;9.954;2023-07-28T14:36:40;27.30;99.90
17639;DHT22;8938;53.546;9.954;2023-07-28T14:39:06;27.40;99.90
17639;DHT22;8938;53.546;9.954;2023-07-28T14:41:32;27.20;99.90
17639;DHT22;8938;53.546;9.954;2023-07-28T14:43:58;27.20;99.90
17639;DHT22;8938;53.546;9.954;2023-07-28T14:46:24;27.30;99.90
17639;DHT22;8938;53.546;9.954;2023-07-28T14:48:50;27.20;99.90
17639;DHT22;8938;53.546;9.954;2023-07-28T14:51:16;27.10;99.90
17639;DHT22;8938;53.546;9.954;2023-07-28T14:53:42;27.20;99.90
17639;DHT22;8938;53.546;9.954;2023-07-28T14:56:08;27.20;99.90
17639;DHT22;8938;53.546;9.954;2023-07-28T14:58:34;27.10;99.90
17639;DHT22;8938;53.546;9.954;2023-07-28T15:01:00;27.10;99.90
17639;DHT22;8938;53.546;9.954;2023-07-28T15:03:27;26.90;99.90
17639;DHT22;8938;53.546;9.954;2023-07-28T15:05:54;27.00;99.90
17639;DHT22;8938;53.546;9.954;2023-07-28T15:08:20;27.00;99.90
17639;DHT22;8938;53.546;9.954;2023-07-28T15:10:46;26.90;99.90
17639;DHT22;8938;53.546;9.954;2023-07-28T15:13:12;26.90;99.90
17639;DHT22;8938;53.546;9.954;2023-07-28T15:15:37;26.80;99.90
17639;DHT22;8938;53.546;9.954;2023-07-28T15:18:03;26.70;99.90
17639;DHT22;8938;53.546;9.954;2023-07-28T15:20:29;26.60;99.90
17639;DHT22;8938;53.546;9.954;2023-07-28T15:22:54;26.70;99.90
17639;DHT22;8938;53.546;9.954;2023-07-28T15:25:20;26.80;99.90
17639;DHT22;8938;53.546;9.954;2023-07-28T15:27:45;26.80;99.90
17639;DHT22;8938;53.546;9.954;2023-07-28T15:30:11;26.70;99.90
17639;DHT22;8938;53.546;9.954;2023-07-28T15:32:38;26.60;99.90
17639;DHT22;8938;53.546;9.954;2023-07-28T15:35:04;26.40;99.90
17639;DHT22;8938;53.546;9.954;2023-07-28T15:37:29;26.30;99.90
17639;DHT22;8938;53.546;9.954;2023-07-28T15:39:55;26.40;99.90
17639;DHT22;8938;53.546;9.954;2023-07-28T15:42:22;26.50;99.90
17639;DHT22;8938;53.546;9.954;2023-07-28T15:44:47;26.60;99.90
17639;DHT22;8938;53.546;9.954;2023-07-28T15:47:15;26.60;99.90
17639;DHT22;8938;53.546;9.954;2023-07-28T15:49:40;26.70;99.90
17639;DHT22;8938;53.546;9.954;2023-07-28T15:52:06;26.50;99.90
17639;DHT22;8938;53.546;9.954;2023-07-28T15:54:32;26.40;99.90
17639;DHT22;8938;53.546;9.954;2023-07-28T15:56:57;26.40;99.90
17639;DHT22;8938;53.546;9.954;2023-07-28T15:59:23;26.50;99.90